Wind From: 20-09-2018 10:00 Until: 20:00 warning for: Wind Level: Yellow info button
suomi:
Tuulivaroitus maa-alueille: Lounaistuuli on voimakasta iltapäivällä ja illalla, tuulen nopeus puuskissa 15 m/s.

svenska:
Vindvarning för landområden: På eftermiddagen och kvällen är den sydvästliga vinden kraftigt, i vindbyarna 15 m/s.

english:
Wind warning for land areas: In the afternoon and in the evening, strong winds from southwest may bring strong gusts of 15 m/s. 


Thunder radar more information blitzortung!


Löydät sääaseman tiedot myös:

European Weather Network

Finland Weather Exchange

Weather Underground

AWEKAS



Weather Underground säähistoriasivu

Päivittäin yhteenveto Lokakuu 24, 2017 Yksiköt:  Englantilaiset    Metriset   Molemmat
« Edellinen Päivä
Seuraava Päivä »
Päivittäin Viikoittain Kuukausittain Vuosittain Mukautettu
  Korkea: Matala: Keskiarvo:
Lämpötila: TemperatureC °F -1.9 °F 0.3 °F
Kastepiste: DewpointC °F -2.7 °F -1.4 °F
Kosteus: Humidity % 76 % 88 %
Tuulen nopeus: WindSpeedKMH mph 0.0 mph 0.6 mph
Tuulenpuuska: WindSpeedGustKMH mph - -
Tuuli:- - South
Ilmanpaine: PressurehPa in 1027.7 in -
Sade: 0.0 in    
Historical Graphs
 
 
Taulukkotiedot Lokakuu 24, 2017
Aika Lämpötila Kastepiste Ilmanpaine Tuuli Tuulen nopeus Tuulenpuuska Kosteus Sademäärä (tunneittain)
TemperatureC °F DewpointC °F PressurehPa in Calm     Humidity % HourlyPrecipMM in
00:00 -0.6 °F -1.3 °F 1031.0 in Calm   3.2 mph 95 % 0.0 in
00:15 -0.6 °F -1.3 °F 1031.0 in Calm     95 % 0.0 in
00:30 -0.6 °F -1.4 °F 1031.0 in Calm   1.6 mph 94 % 0.0 in
00:45 -0.5 °F -1.3 °F 1031.0 in Calm     94 % 0.0 in
01:00 -0.4 °F -1.4 °F 1031.0 in Calm     93 % 0.0 in
01:15 -0.5 °F -1.3 °F 1031.0 in Calm     94 % 0.0 in
01:30 -0.4 °F -1.4 °F 1031.0 in Calm     93 % 0.0 in
01:45 -0.4 °F -1.6 °F 1031.0 in Calm     92 % 0.0 in
02:00 -0.4 °F -1.7 °F 1031.0 in Calm   3.2 mph 91 % 0.0 in
02:15 -0.3 °F -1.8 °F 1031.0 in South 1.6 mph 8.0 mph 90 % 0.0 in
02:30 -0.3 °F -1.7 °F 1031.0 in Calm   8.0 mph 90 % 0.0 in
02:45 -0.2 °F -1.8 °F 1031.4 in SSW 1.6 mph 11.3 mph 89 % 0.0 in
03:00 -0.2 °F -1.7 °F 1031.4 in Calm   1.6 mph 90 % 0.0 in
03:15 -0.3 °F -1.7 °F 1031.4 in Calm     90 % 0.0 in
03:30 -0.3 °F -1.6 °F 1031.4 in Calm   6.4 mph 91 % 0.0 in
03:45 -0.4 °F -1.6 °F 1031.4 in Calm   3.2 mph 92 % 0.0 in
04:00 -0.5 °F -1.5 °F 1031.7 in Calm   4.8 mph 93 % 0.0 in
04:15 -0.6 °F -1.4 °F 1031.7 in Calm     94 % 0.0 in
04:30 -0.7 °F -1.7 °F 1031.7 in South 1.6 mph 8.0 mph 93 % 0.0 in
04:45 -0.8 °F -1.9 °F 1031.4 in Calm   3.2 mph 92 % 0.0 in
05:00 -0.8 °F -1.9 °F 1031.4 in Calm   1.6 mph 92 % 0.0 in
05:15 -0.8 °F -1.9 °F 1031.4 in Calm     92 % 0.0 in
05:30 -0.8 °F -1.9 °F 1031.4 in Calm   8.0 mph 92 % 0.0 in
05:45 -0.8 °F -2.0 °F 1031.4 in Calm     92 % 0.0 in
06:00 -0.8 °F -2.0 °F 1031.4 in Calm     92 % 0.0 in
06:15 -0.8 °F -2.0 °F 1031.4 in Calm     92 % 0.0 in
06:30 -0.8 °F -2.0 °F 1031.7 in Calm     92 % 0.0 in
06:45 -0.9 °F -2.0 °F 1031.4 in Calm     92 % 0.0 in
07:00 -0.9 °F -1.9 °F 1031.7 in Calm     93 % 0.0 in
07:15 -0.9 °F -1.9 °F 1031.7 in Calm   3.2 mph 93 % 0.0 in
07:30 -0.9 °F -1.9 °F 1031.7 in Calm     93 % 0.0 in
07:45 -0.9 °F -2.0 °F 1031.7 in SSW 1.6 mph 9.7 mph 92 % 0.0 in
08:00 -0.8 °F -2.3 °F 1031.7 in Calm   6.4 mph 90 % 0.0 in
08:15 -0.8 °F -2.1 °F 1031.7 in Calm   4.8 mph 91 % 0.0 in
08:30 -0.8 °F -2.2 °F 1031.4 in Calm   4.8 mph 90 % 0.0 in
08:45 -0.8 °F -2.2 °F 1031.7 in Calm   1.6 mph 90 % 0.0 in
09:00 -0.7 °F -2.0 °F 1031.4 in Calm   6.4 mph 91 % 0.0 in
09:15 -0.7 °F -2.2 °F 1031.4 in Calm   1.6 mph 90 % 0.0 in
09:30 -0.6 °F -2.0 °F 1031.4 in Calm   3.2 mph 90 % 0.0 in
09:45 -0.5 °F -2.1 °F 1031.4 in Calm     89 % 0.0 in
10:00 -0.4 °F -2.0 °F 1031.4 in Calm   4.8 mph 89 % 0.0 in
10:15 -0.3 °F -1.9 °F 1031.4 in SSE 1.6 mph 9.7 mph 89 % 0.0 in
10:30 -0.2 °F -2.0 °F 1031.4 in Calm   6.4 mph 88 % 0.0 in
10:45 -0.1 °F -1.9 °F 1031.4 in SSE 1.6 mph 8.0 mph 88 % 0.0 in
11:00 0.1 °F -1.9 °F 1031.0 in South 3.2 mph 11.3 mph 87 % 0.0 in
11:15 0.2 °F -1.9 °F 1031.0 in South 1.6 mph 8.0 mph 86 % 0.0 in
11:30 0.3 °F -1.9 °F 1031.0 in South 1.6 mph 8.0 mph 85 % 0.0 in
11:45 0.4 °F -1.8 °F 1031.0 in South 1.6 mph 6.4 mph 85 % 0.0 in
12:00 0.7 °F -1.6 °F 1031.0 in South 1.6 mph 12.9 mph 85 % 0.0 in
12:15 0.8 °F -1.5 °F 1031.0 in Calm   9.7 mph 85 % 0.0 in
12:30 0.8 °F -1.2 °F 1030.7 in South 1.6 mph 6.4 mph 86 % 0.0 in
12:45 1.1 °F -1.3 °F 1030.7 in Calm   8.0 mph 84 % 0.0 in
13:00 1.6 °F -0.9 °F 1030.7 in South 3.2 mph 9.7 mph 84 % 0.0 in
13:15 1.8 °F -0.9 °F 1030.7 in South 1.6 mph 14.5 mph 82 % 0.0 in
13:30 2.1 °F -0.9 °F 1030.7 in South 3.2 mph 11.3 mph 81 % 0.0 in
13:45 2.2 °F -0.9 °F 1030.7 in South 3.2 mph 14.5 mph 80 % 0.0 in
14:00 2.6 °F -0.7 °F 1030.4 in South 1.6 mph 11.3 mph 79 % 0.0 in
14:15 2.9 °F -0.7 °F 1030.4 in South 3.2 mph 9.7 mph 77 % 0.0 in
14:30 2.9 °F -0.7 °F 1030.4 in South 1.6 mph 11.3 mph 77 % 0.0 in
14:45 2.7 °F -0.8 °F 1030.0 in SSE 1.6 mph 11.3 mph 78 % 0.0 in
15:00 2.8 °F -0.6 °F 1030.0 in SSW 3.2 mph 9.7 mph 78 % 0.0 in
15:15 3.1 °F -0.5 °F 1030.0 in SSE 3.2 mph 11.3 mph 77 % 0.0 in
15:30 3.4 °F -0.4 °F 1030.0 in South 1.6 mph 11.3 mph 76 % 0.0 in
15:45 2.9 °F -0.6 °F 1030.0 in South 1.6 mph 9.7 mph 78 % 0.0 in
16:00 2.8 °F -0.5 °F 1030.0 in Calm   8.0 mph 79 % 0.0 in
16:15 2.8 °F -0.3 °F 1029.7 in Calm   3.2 mph 80 % 0.0 in
16:30 2.6 °F -0.2 °F 1029.3 in Calm   11.3 mph 82 % 0.0 in
16:45 2.7 °F -0.1 °F 1029.3 in South 1.6 mph 11.3 mph 82 % 0.0 in
17:00 2.6 °F -0.2 °F 1029.3 in Calm   6.4 mph 82 % 0.0 in
17:15 2.5 °F -0.1 °F 1029.3 in Calm   6.4 mph 83 % 0.0 in
17:30 2.3 °F -0.3 °F 1029.0 in Calm     83 % 0.0 in
17:45 2.0 °F -0.4 °F 1029.0 in Calm   8.0 mph 84 % 0.0 in
18:00 1.8 °F -0.5 °F 1029.0 in Calm   6.4 mph 85 % 0.0 in
18:15 1.6 °F -0.5 °F 1029.0 in Calm   1.6 mph 86 % 0.0 in
18:30 1.3 °F -0.8 °F 1028.7 in Calm   3.2 mph 86 % 0.0 in
18:45 1.1 °F -0.9 °F 1029.0 in Calm   8.0 mph 87 % 0.0 in
19:00 0.8 °F -0.9 °F 1029.0 in Calm   6.4 mph 88 % 0.0 in
19:15 0.5 °F -1.1 °F 1029.0 in Calm   6.4 mph 89 % 0.0 in
19:30 0.3 °F -1.1 °F 1029.0 in Calm   1.6 mph 90 % 0.0 in
19:45 0.4 °F -1.0 °F 1029.0 in Calm   6.4 mph 90 % 0.0 in
20:00 0.7 °F -0.8 °F 1029.0 in Calm   6.4 mph 90 % 0.0 in
20:15 0.8 °F -0.8 °F 1029.0 in SSE 1.6 mph 12.9 mph 89 % 0.0 in
20:30 0.8 °F -0.8 °F 1029.0 in South 1.6 mph 8.0 mph 89 % 0.0 in
20:45 0.6 °F -1.0 °F 1028.7 in Calm   6.4 mph 89 % 0.0 in
21:00 0.2 °F -1.2 °F 1028.7 in Calm   8.0 mph 90 % 0.0 in
21:15 -0.2 °F -1.5 °F 1028.7 in Calm   3.2 mph 91 % 0.0 in
21:30 -0.5 °F -1.8 °F 1028.3 in Calm     91 % 0.0 in
21:45 -0.8 °F -2.0 °F 1028.3 in Calm     92 % 0.0 in
22:00 -1.1 °F -2.0 °F 1028.3 in Calm     93 % 0.0 in
22:15 -1.2 °F -2.2 °F 1028.3 in Calm     93 % 0.0 in
22:30 -1.4 °F -2.4 °F 1028.0 in Calm     93 % 0.0 in
22:45 -1.7 °F -2.7 °F 1028.0 in Calm     93 % 0.0 in
23:00 -1.9 °F -2.7 °F 1028.0 in Calm     94 % 0.0 in
23:15 -1.8 °F -2.7 °F 1028.0 in Calm   1.6 mph 94 % 0.0 in
23:30 -1.7 °F -2.4 °F 1028.0 in Calm   3.2 mph 95 % 0.0 in
23:45 -1.6 °F -2.3 °F 1027.7 in Calm   6.4 mph 95 % 0.0 in
Esan sääasema
Terveisin Weather Underground - 2.75 mb

Alkuperäinen skripti  Jim McMurry - jmcmurry@mwt.net Sovitettu myös templatelle  Wim van der Kuil - Leuven-Template.eu

Laitteet joita käytämme:

Sääasema
Davis VP2

Sääasemaohjelma
Cumulus

Sääaseman tietokone
Asus EeePC

Palveluntarjoaja
Suncomet

Davis VP2

Cumulus

Asus EeePC

Suncomet